KMRN/MRN METAR and TAF weather

Enter ICAO airport designator
Station Type Date Time Source
KMRN METAR 2020/01/27 10:55 UTC NOAA

KMRN 271055Z AUTO 00000KT 10SM SCT039 SCT120 03/00 A2990 RMK AO2 T00310000


Station Type Date Time Source
KMRN Decoded METAR 2020/01/27 10:55 UTC NOAA

Morganton, Morganton-Lenoir Airport, NC, United States (KMRN) 35-49-17N 081-36-39W
Jan 27, 2020 - 05:55 AM EST / 2020.01.27 1055 UTC
Wind: Calm:0
Visibility: 10 mile(s):0
Sky conditions: partly cloudy
Temperature: 37.6 F (3.1 C)
Dew Point: 32.0 F (0.0 C)
Relative Humidity: 80%
Pressure (altimeter): 29.9 in. Hg (1012 hPa)
ob: KMRN 271055Z AUTO 00000KT 10SM SCT039 SCT120 03/00 A2990 RMK AO2 T00310000
cycle: 11

Station Type Date Time Source
KMRN TAF UTC NOAA

Error!

Example: see airport list